METAR Data
IDs: Format: Raw Decoded Include TAF

Data at: 0230 UTC 25 Jan 2020

PAYA 250153Z AUTO 08007KT 6SM -SN BR BKN033 BKN050 OVC070 M03/M04 A2929 RMK AO2 SNB23 SLP918 P0001 T10281044 TSNO
PAYA 250144Z AUTO 09007KT 2 1/2SM -SN BR BKN027 OVC035 M03/M04 A2929 RMK AO2 SNB23 P0001 T10281044 TSNO
PAYA 250053Z AUTO 07012KT 10SM FEW065 SCT085 BKN110 M03/M04 A2927 RMK AO2 SNE02 SLP913 P0000 T10331044 TSNO
PAYA 250012Z AUTO 08009KT 10SM FEW008 BKN075 OVC100 M03/M04 A2928 RMK AO2 SNE02 P0000 T10281039 TSNO
PAYA 250001Z AUTO 08010KT 5SM -SN BR FEW020 SCT060 OVC100 M03/M04 A2928 RMK AO2 P0000 T10281039 TSNO
PAYA 242353Z AUTO 08009KT 3SM -SN BR BKN011 BKN060 OVC100 M03/M04 A2928 RMK AO2 SLP915 P0002 60002 T10281039 11028 21056 51006 TSNO
PAYA 242350Z AUTO 08012KT 3SM -SN BR BKN011 BKN060 OVC100 M03/M03 A2928 RMK AO2 P0002 TSNO
PAYA 242341Z AUTO 07009KT 1 1/2SM -SN BR BKN013 OVC060 M03/M03 A2928 RMK AO2 P0002 T10281033 TSNO
PAYA 242338Z AUTO 08010KT 1/2SM -SN FZFG BKN011 OVC060 M03/M03 A2927 RMK AO2 P0002 T10281033 TSNO RVRNO
PAYA 242316Z AUTO 11006KT 1/4SM +SN FZFG VV009 M03/M04 A2927 RMK AO2 P0001 T10331039 TSNO RVRNO
PAYA 242302Z AUTO VRB04KT 1/4SM SN FZFG FEW013 OVC020 M03/M04 A2927 RMK AO2 P0000 T10331044 TSNO RVRNO
PAYA 242258Z AUTO 13004KT 1SM -SN BR FEW015 OVC028 M04/M04 A2927 RMK AO2 VIS 1/4V5 P0000 T10391044 TSNO RVRNO
PAYA 242253Z AUTO 17006KT 6SM -SN BR FEW017 OVC036 M04/M05 A2927 RMK AO2 SNB49 SLP912 P0000 T10391050 TSNO
PAYA 242153Z AUTO 08005KT 10SM FEW034 BKN046 M04/M05 A2926 RMK AO2 SLP909 T10391050 TSNO
PAYA 242053Z AUTO 10003KT 10SM CLR M04/M05 A2926 RMK AO2 SLP908 T10441050 53002 TSNO
PAYA 242038Z AUTO 06004KT 3SM BR CLR M04/M04 A2926 RMK AO2 T10391044 TSNO
PAYA 242005Z AUTO 00000KT 1 1/2SM BR FEW002 M04/M05 A2926 RMK AO2 T10441050 TSNO
PAYA 241953Z AUTO 00000KT 5SM BR CLR M04/M05 A2926 RMK AO2 SLP908 T10441050 TSNO
PAYA 241949Z AUTO 00000KT 1 1/2SM BR CLR M04/M05 A2926 RMK AO2 TSNO
PAYA 241945Z AUTO 00000KT 1SM BR VV002 M04/M05 A2926 RMK AO2 T10441050 TSNO RVRNO
PAYA 241938Z AUTO 00000KT 1 1/4SM BR FEW002 M04/M06 A2926 RMK AO2 T10441056 TSNO
PAYA 241918Z AUTO 00000KT 1/2SM FZFG VV002 M04/M06 A2926 RMK AO2 T10441056 TSNO RVRNO
PAYA 241907Z AUTO 00000KT 1/2SM FZFG VV001 M05/M05 A2925 RMK AO2 T10501050 TSNO RVRNO
PAYA 241902Z AUTO 00000KT 1/4SM FZFG VV002 M05/M05 A2925 RMK AO2 T10501050 TSNO RVRNO
PAYA 241852Z AUTO 00000KT 1/2SM FZFG VV002 M05/M05 A2925 RMK AO2 SLP905 T10501050 TSNO RVRNO
PAYA 241851Z AUTO 00000KT 1/4SM FZFG VV001 M04/M05 A2925 RMK AO2 TSNO RVRNO
PAYA 241844Z AUTO 00000KT 1/2SM FZFG VV002 M04/M05 A2925 RMK AO2 T10441050 TSNO RVRNO
PAYA 241828Z AUTO 06003KT 1/4SM FZFG VV002 M05/M05 A2925 RMK AO2 T10501050 TSNO RVRNO
PAYA 241807Z AUTO 08003KT 3/4SM BR VV004 M06/M06 A2925 RMK AO2 VIS 1/4V4 T10561061 TSNO RVRNO
PAYA 241805Z AUTO 09003KT 1 3/4SM BR SCT004 M05/M06 A2925 RMK AO2 VIS 3/4V5 T10501056 TSNO
PAYA 241753Z AUTO 00000KT 10SM SCT004 M04/M05 A2925 RMK AO2 SNE04 SLP906 P0000 60004 T10441050 11017 21056 56015 TSNO
PAYA 241724Z AUTO 08006KT 9SM FEW013 SCT060 M03/M04 A2926 RMK AO2 SNE04 P0000 T10331044 TSNO
PAYA 241702Z AUTO 06005KT 3SM -SN BR SCT006 BKN012 OVC060 M03/M03 A2926 RMK AO2 P0000 T10281033 TSNO
PAYA 241653Z AUTO 05005KT 1 1/2SM -SN BR FEW007 BKN012 OVC065 M02/M03 A2926 RMK AO2 SNE04B22 SLP909 P0000 T10221028 TSNO
PAYA 241649Z AUTO 04005KT 1 3/4SM -SN BR BKN007 BKN012 OVC065 M02/M03 A2926 RMK AO2 SNE04B22 P0000 TSNO $
PAYA 241642Z AUTO 02004KT 3SM -SN BR BKN007 BKN048 OVC070 M02/M03 A2926 RMK AO2 SNE04B22 P0000 T10221028 TSNO $
PAYA 241639Z AUTO 01004KT 3SM -SN BR SCT005 BKN048 OVC070 M02/M03 A2926 RMK AO2 SNE04B22 P0000 T10221028 TSNO $
PAYA 241553Z AUTO 08003KT 3SM -SN BR BKN041 OVC070 M02/M03 A2928 RMK AO2 SNB1458 SLP914 P0000 T10221028 TSNO
PAYA 241537Z AUTO 07004KT 2SM -SN BR OVC030 M02/M03 A2928 RMK AO2 SNB1458 P0000 T10221028 TSNO
PAYA 241453Z AUTO 7SM OVC046 M03/M03 A2930 RMK AO2 SNE22 SLP920 P0000 60004 T10281028 58020 TSNO $
PAYA 241419Z AUTO 4SM -SN BR OVC042 M02/M03 A2931 RMK AO2 P0000 T10221028 TSNO $
PAYA 241401Z AUTO 2SM -SN BR OVC032 M02/M03 A2932 RMK AO2 P0000 T10221028 TSNO $
PAYA 241353Z AUTO 3SM -SN BR OVC036 M02/M02 A2932 RMK AO2 SNE20B39 SLP929 P0001 T10171022 TSNO $
PAYA 241318Z AUTO 4SM -SN BR OVC049 M02/M02 A2933 RMK AO2 P0001 T10171022 TSNO $
PAYA 241307Z AUTO 2SM -SN BR OVC039 M02/M02 A2933 RMK AO2 P0001 T10171022 TSNO $
PAYA 241253Z AUTO 1SM -SN BR VV020 M02/M03 A2934 RMK AO2 SLP934 P0003 T10171028 TSNO RVRNO $
PAYA 241223Z AUTO 3/4SM -SN BR VV014 M02/M02 A2935 RMK AO2 P0002 T10171022 TSNO RVRNO $
PAYA 241217Z AUTO 1SM -SN BR VV015 M02/M02 A2935 RMK AO2 P0001 T10171022 TSNO RVRNO $
PAYA 241202Z AUTO 1 1/4SM -SN BR OVC014 M02/M02 A2935 RMK AO2 P0001 T10171022 TSNO $
PAYA 241153Z AUTO 3/4SM -SN BR VV011 M01/M02 A2936 RMK AO2 SLP941 P0008 60029 70043 T10111022 11006 21017 55001 TSNO RVRNO $
PAYA 241137Z AUTO 1/2SM SN FZFG VV007 M01/M02 A2936 RMK AO2 P0007 T10111017 TSNO RVRNO $
PAYA 241125Z AUTO 1/4SM SN FZFG VV007 M02/M02 A2936 RMK AO2 P0005 T10171022 TSNO RVRNO $
PAYA 241053Z AUTO 1/2SM SN FZFG VV008 M02/M02 A2935 RMK AO2 SLP940 P0005 T10171022 TSNO RVRNO $
PAYA 241045Z AUTO 1/2SM SN FZFG VV011 M02/M02 A2935 RMK AO2 P0004 T10171022 TSNO RVRNO $
PAYA 241032Z AUTO 1SM -SN BR VV012 M02/M02 A2935 RMK AO2 P0003 T10171022 TSNO RVRNO $
PAYA 240953Z AUTO 1/2SM SN FZFG VV011 M01/M01 A2935 RMK AO2 SLP940 P0003 T10111011 TSNO RVRNO $
PAYA 240945Z AUTO 3/4SM -SN BR VV014 M01/M01 A2936 RMK AO2 P0003 T10111011 TSNO RVRNO $
PAYA 240937Z AUTO 1SM -SN BR FEW009 OVC015 M01/M01 A2936 RMK AO2 P0002 T10111011 TSNO RVRNO $
PAYA 240929Z AUTO 1SM -SN BR VV014 M01/M01 A2936 RMK AO2 P0002 T10061011 TSNO RVRNO $
PAYA 240853Z AUTO 1 1/4SM -SN BR FEW007 OVC017 M01/M01 A2936 RMK AO2 SLP942 P0002 60013 T10061011 400001033 53003 TSNO $
PAYA 240844Z AUTO 1SM -SN BR FEW008 OVC017 M01/M01 A2936 RMK AO2 P0002 T10061011 TSNO RVRNO $
PAYA 240813Z AUTO 1 1/2SM -SN BR FEW006 FEW011 OVC016 M01/M02 A2935 RMK AO2 P0001 T10111017 TSNO $
PAYA 240753Z AUTO 1SM -SN BR FEW006 OVC012 M01/M01 A2935 RMK AO2 SLP940 P0006 T10111011 TSNO RVRNO $
PAYA 240748Z AUTO 1SM -SN BR SCT006 OVC010 M01/M02 A2935 RMK AO2 P0006 TSNO RVRNO $
PAYA 240716Z AUTO 1/2SM SN FZFG VV008 M01/M02 A2935 RMK AO2 P0002 T10111017 TSNO RVRNO $
PAYA 240706Z AUTO 1SM -SN BR VV008 M01/M02 A2935 RMK AO2 P0001 T10111017 TSNO RVRNO $
PAYA 240653Z AUTO 1/2SM SN FZFG VV009 M01/M02 A2935 RMK AO2 SLP938 P0005 T10111017 TSNO RVRNO $
PAYA 240651Z AUTO 1/2SM SN FZFG VV009 M01/M02 A2935 RMK AO2 P0005 TSNO RVRNO $
PAYA 240617Z AUTO 3/4SM -SN BR SCT009 OVC014 M02/M02 A2934 RMK AO2 P0002 T10171022 TSNO RVRNO $
PAYA 240553Z AUTO 1 1/4SM -SN BR SCT005 OVC022 M02/M02 A2934 RMK AO2 SLP935 P0001 60012 T10171022 10000 21017 53004 TSNO $
PAYA 240549Z AUTO 1 1/4SM -SN BR SCT005 OVC020 M02/M02 A2934 RMK AO2 P0001 TSNO $
PAYA 240546Z AUTO 1 1/2SM -SN BR BKN005 OVC020 M01/M02 A2934 RMK AO2 P0001 T10111022 TSNO $
PAYA 240533Z AUTO 2 1/2SM -SN BR BKN005 BKN009 OVC018 M01/M02 A2934 RMK AO2 P0001 T10111022 TSNO $
PAYA 240504Z AUTO 1 1/2SM -SN BR BKN005 BKN010 OVC016 M01/M02 A2934 RMK AO2 P0001 T10111022 TSNO $
PAYA 240453Z AUTO 1 1/4SM -SN BR SCT006 OVC013 M01/M02 A2934 RMK AO2 SLP934 P0002 T10111017 TSNO $
PAYA 240445Z AUTO 1SM -SN BR SCT006 OVC013 M01/M02 A2933 RMK AO2 P0002 T10111017 TSNO RVRNO $
PAYA 240431Z AUTO 3/4SM -SN BR FEW006 OVC013 M01/M01 A2933 RMK AO2 P0001 T10111011 TSNO RVRNO $
PAYA 240420Z AUTO 1 1/2SM -SN BR FEW005 OVC014 M01/M01 A2933 RMK AO2 P0001 T10111011 TSNO $
PAYA 240353Z AUTO 1 1/4SM -SN BR OVC014 M01/M01 A2933 RMK AO2 SLP931 P0002 T10111011 TSNO $
PAYA 240350Z AUTO 1SM -SN BR OVC012 M01/M01 A2932 RMK AO2 P0002 TSNO RVRNO $
PAYA 240326Z AUTO 3/4SM -SN BR VV012 M01/M01 A2932 RMK AO2 P0001 T10111011 TSNO RVRNO $
PAYA 240253Z AUTO 1SM -SN BR FEW005 OVC012 M01/M01 A2931 RMK AO2 SLP927 P0003 60007 T10061011 53008 TSNO RVRNO $
PAYA 240242Z AUTO 1SM -SN BR VV012 M01/M01 A2931 RMK AO2 P0003 T10061011 TSNO RVRNO $
PAYA 240153Z AUTO 10003KT 3/4SM -SN BR VV013 M01/M01 A2930 RMK AO2 SLP923 P0003 T10061006 TSNO RVRNO $
PAYA 240148Z AUTO 10003KT 3/4SM -SN BR VV014 M01/M01 A2930 RMK AO2 P0002 TSNO RVRNO $
PAYA 240134Z AUTO 09003KT 1SM -SN BR FEW004 OVC021 00/M01 A2930 RMK AO2 P0002 T00001006 TSNO RVRNO $
PAYA 240126Z AUTO 09003KT 1 1/2SM -SN BR SCT003 OVC025 M01/M01 A2930 RMK AO2 P0001 T10061006 TSNO $
PAYA 240053Z AUTO 00000KT 1SM -SN BR SCT003 OVC023 00/M01 A2929 RMK AO2 SLP919 P0001 T00001006 TSNO RVRNO
PAYA 240027Z AUTO 00000KT 1 1/4SM -SN BR FEW005 SCT010 OVC029 00/M01 A2929 RMK AO2 P0001 T00001006 TSNO
PAYA 240022Z AUTO 00000KT 1 3/4SM -SN BR FEW005 SCT010 OVC033 00/M01 A2929 RMK AO2 P0001 T00001006 TSNO
PAYA 240016Z AUTO 00000KT 1 3/4SM -SN BR BKN010 OVC036 00/M01 A2929 RMK AO2 P0000 T00001006 TSNO
PAYA 232358Z AUTO 00000KT 3SM -SN BR BKN011 OVC025 00/M01 A2929 RMK AO2 P0000 T00001006 TSNO
PAYA 232353Z AUTO 00000KT 1 1/2SM -SN BR BKN011 OVC025 00/M01 A2929 RMK AO2 SLP918 P0001 60002 T00001006 10000 21017 TSNO
PAYA 232319Z AUTO 00000KT 1 1/4SM -SN BR OVC013 00/M01 A2928 RMK AO2 P0001 T00001006 TSNO $
PAYA 232308Z AUTO 00000KT 2 1/2SM -SN BR OVC013 M01/M01 A2928 RMK AO2 P0000 T10061006 TSNO $
PAYA 232301Z AUTO 00000KT 1 1/2SM -SN BR OVC015 M01/M01 A2928 RMK AO2 P0000 T10061006 TSNO $
PAYA 232253Z AUTO 00000KT 1/2SM SN FZFG VV017 M01/M01 A2928 RMK AO2 SLP916 P0001 T10061006 TSNO RVRNO $
PAYA 232219Z AUTO 00000KT 1SM -SN BR OVC023 M01/M01 A2928 RMK AO2 P0000 T10061006 TSNO RVRNO
PAYA 232200Z AUTO 00000KT 1 3/4SM -SN BR OVC024 00/M01 A2928 RMK AO2 P0000 T00001006 TSNO
PAYA 232153Z AUTO 00000KT 2SM -SN BR SCT021 BKN034 OVC050 00/M01 A2928 RMK AO2 SNB25 SLP915 P0000 T00001006 TSNO
PAYA 232053Z AUTO 00000KT 10SM OVC065 M01/M01 A2927 RMK AO2 SLP913 T10111011 51015 TSNO
PAYA 231953Z AUTO 00000KT 7SM SCT048 OVC060 M02/M02 A2926 RMK AO2 SLP909 T10171022 TSNO
PAYA 231853Z AUTO 00000KT 9SM BKN048 OVC060 M02/M03 A2924 RMK AO2 SLP903 T10221028 TSNO
PAYA 231838Z AUTO 00000KT 3SM BR OVC048 M03/M03 A2924 RMK AO2 T10281033 TSNO
PAYA 231827Z AUTO 00000KT 1 3/4SM BR OVC046 M03/M03 A2924 RMK AO2 T10281033 TSNO
PAYA 231753Z AUTO 00000KT 10SM BKN040 BKN050 OVC060 M02/M03 A2923 RMK AO2 SLP898 I6000 T10221028 11017 21033 53007 TSNO
PAYA 231653Z AUTO 00000KT 10SM OVC065 M03/M03 A2922 RMK AO2 SLP894 T10281033 TSNO
PAYA 231553Z AUTO 00000KT 10SM FEW055 OVC070 M03/M03 A2921 RMK AO2 SLP891 T10281028 TSNO
PAYA 231511Z AUTO 00000KT 10SM OVC070 M03/M03 A2921 RMK AO2 T10281033 TSNO $
PAYA 231504Z AUTO 00000KT 2SM BR BKN070 M03/M03 A2921 RMK AO2 T10281033 TSNO $
PAYA 231457Z AUTO 00000KT 1 1/4SM BR BKN075 M03/M03 A2921 RMK AO2 T10331033 TSNO $
PAYA 231453Z AUTO 00000KT 2 1/2SM BR SCT080 M03/M03 A2921 RMK AO2 SLP891 I1000 I3000 T10281033 56013 TSNO $
PAYA 231440Z AUTO 00000KT 8SM CLR M03/M03 A2921 RMK AO2 T10281028 TSNO $